Time;durP1;ratioP1;P1;durP2;ratioP2;P2;SDS_P1;SDS_P2;PMS_P1;PMS_P2;Temp;Humidity;BMP_temperature;BMP_pressure;BME280_temperature;BME280_humidity;BME280_pressure;Samples;Min_cycle;Max_cycle;Signal;HPM_P1;HPM_P2
2022/11/14 00:02:06;;;;;;;;;;;;;;;;;;4904453;29;19923;-75
2022/11/14 00:04:52;;;;;;;;;;;;;;;;;;4896318;29;19919;-75
2022/11/14 00:07:39;;;;;;;;;;;;;;;;;;4893307;29;20742;-74
2022/11/14 00:10:25;;;;;;;;;;;;;;;;;;4893144;29;19927;-77
2022/11/14 00:13:12;;;;;;;;;;;;;;;;;;4894535;29;20276;-74
2022/11/14 00:15:58;;;;;;;;;;;;;;;;;;4899680;29;19915;-77
2022/11/14 00:18:45;;;;;;;;;;;;;;;;;;4901903;29;19922;-76
2022/11/14 00:21:31;;;;;;;;;;;;;;;;;;4896103;29;19919;-74
2022/11/14 00:24:18;;;;;;;;;;;;;;;;;;4893177;29;19912;-75
2022/11/14 00:27:04;;;;;;;;;;;;;;;;;;4898120;29;19926;-74
2022/11/14 00:29:51;;;;;;;;;;;;;;;;;;4904977;29;20390;-75
2022/11/14 00:32:37;;;;;;;;;;;;;;;;;;4895783;29;19923;-76
2022/11/14 00:35:23;;;;;;;;;;;;;;;;;;4909553;29;20371;-75
2022/11/14 00:38:10;;;;;;;;;;;;;;;;;;4910618;29;19919;-75
2022/11/14 00:40:56;;;;;;;;;;;;;;;;;;4907426;29;19915;-75
2022/11/14 00:43:43;;;;;;;;;;;;;;;;;;4904320;29;20420;-75
2022/11/14 00:46:29;;;;;;;;;;;;;;;;;;4904553;29;19915;-75
2022/11/14 00:49:16;;;;;;;;;;;;;;;;;;4901953;29;20300;-75
2022/11/14 00:52:02;;;;;;;;;;;;;;;;;;4906540;29;19942;-75
2022/11/14 00:54:49;;;;;;;;;;;;;;;;;;4912019;29;20372;-76
2022/11/14 00:57:35;;;;;;;;;;;;;;;;;;4900908;29;19930;-75
2022/11/14 01:00:22;;;;;;;;;;;;;;;;;;4899342;29;20336;-75
2022/11/14 01:03:08;;;;;;;;;;;;;;;;;;4906428;29;19927;-75
2022/11/14 01:05:54;;;;;;;;;;;;;;;;;;4896239;29;19916;-75
2022/11/14 01:08:41;;;;;;;;;;;;;;;;;;4911202;29;19917;-76
2022/11/14 01:11:27;;;;;;;;;;;;;;;;;;4910270;29;19927;-75
2022/11/14 01:14:14;;;;;;;;;;;;;;;;;;4902335;29;19922;-76
2022/11/14 01:17:00;;;;;;;;;;;;;;;;;;4896526;29;19927;-76
2022/11/14 01:19:47;;;;;;;;;;;;;;;;;;4901770;29;19912;-74
2022/11/14 01:22:33;;;;;;;;;;;;;;;;;;4904958;29;20261;-74
2022/11/14 01:25:20;;;;;;;;;;;;;;;;;;4898852;29;19915;-75
2022/11/14 01:28:06;;;;;;;;;;;;;;;;;;4904385;29;19919;-75
2022/11/14 01:30:53;;;;;;;;;;;;;;;;;;4901885;29;19951;-75
2022/11/14 01:33:39;;;;;;;;;;;;;;;;;;4905936;29;19915;-75
2022/11/14 01:36:26;;;;;;;;;;;;;;;;;;4900319;29;19915;-75
2022/11/14 01:39:12;;;;;;;;;;;;;;;;;;4898937;29;19911;-75
2022/11/14 01:41:59;;;;;;;;;;;;;;;;;;4907786;29;20275;-76
2022/11/14 01:44:45;;;;;;;;;;;;;;;;;;4910344;29;19930;-77
2022/11/14 01:47:32;;;;;;;;;;;;;;;;;;4909665;29;19916;-77
2022/11/14 01:50:18;;;;;;;;;;;;;;;;;;4899669;29;19931;-76
2022/11/14 01:53:05;;;;;;;;;;;;;;;;;;4904229;29;20315;-77
2022/11/14 01:55:51;;;;;;;;;;;;;;;;;;4901272;29;19919;-77
2022/11/14 01:58:38;;;;;;;;;;;;;;;;;;4901511;29;19912;-76
2022/11/14 02:01:24;;;;;;;;;;;;;;;;;;4896136;29;19923;-76
2022/11/14 02:04:11;;;;;;;;;;;;;;;;;;4902576;29;20307;-76
2022/11/14 02:06:57;;;;;;;;;;;;;;;;;;4907569;29;19915;-76
2022/11/14 02:09:44;;;;;;;;;;;;;;;;;;4914346;29;19919;-76
2022/11/14 02:12:30;;;;;;;;;;;;;;;;;;4904661;29;19919;-75
2022/11/14 02:15:17;;;;;;;;;;;;;;;;;;4905843;29;19942;-76
2022/11/14 02:18:03;;;;;;;;;;;;;;;;;;4900651;29;19930;-76
2022/11/14 02:20:49;;;;;;;;;;;;;;;;;;4904219;29;19912;-76
2022/11/14 02:23:36;;;;;;;;;;;;;;;;;;4912445;29;19912;-76
2022/11/14 02:26:22;;;;;;;;;;;;;;;;;;4914609;29;19921;-75
2022/11/14 02:29:09;;;;;;;;;;;;;;;;;;4914814;29;19911;-75
2022/11/14 02:31:55;;;;;;;;;;;;;;;;;;4912180;29;19926;-75
2022/11/14 02:34:42;;;;;;;;;;;;;;;;;;4906241;29;19926;-76
2022/11/14 02:37:28;;;;;;;;;;;;;;;;;;4907198;29;19916;-76
2022/11/14 02:40:15;;;;;;;;;;;;;;;;;;4911432;29;19922;-75
2022/11/14 02:43:01;;;;;;;;;;;;;;;;;;4909203;29;19911;-76
2022/11/14 02:45:48;;;;;;;;;;;;;;;;;;4912597;29;19911;-76
2022/11/14 02:48:34;;;;;;;;;;;;;;;;;;4909607;29;19911;-76
2022/11/14 02:51:20;;;;;;;;;;;;;;;;;;4904890;29;19927;-75
2022/11/14 02:54:07;;;;;;;;;;;;;;;;;;4910294;29;19919;-75
2022/11/14 02:56:53;;;;;;;;;;;;;;;;;;4906442;29;19919;-75
2022/11/14 02:59:40;;;;;;;;;;;;;;;;;;4912891;29;19918;-75
2022/11/14 03:02:26;;;;;;;;;;;;;;;;;;4913318;29;19923;-75
2022/11/14 03:05:13;;;;;;;;;;;;;;;;;;4912078;29;19915;-75
2022/11/14 03:07:59;;;;;;;;;;;;;;;;;;4905056;29;19918;-76
2022/11/14 03:10:46;;;;;;;;;;;;;;;;;;4911102;29;20372;-75
2022/11/14 03:13:32;;;;;;;;;;;;;;;;;;4910936;29;19925;-75
2022/11/14 03:16:19;;;;;;;;;;;;;;;;;;4913107;29;20295;-75
2022/11/14 03:19:05;;;;;;;;;;;;;;;;;;4904240;29;19921;-75
2022/11/14 03:21:52;;;;;;;;;;;;;;;;;;4907338;29;19911;-76
2022/11/14 03:24:38;;;;;;;;;;;;;;;;;;4913382;29;19916;-76
2022/11/14 03:27:25;;;;;;;;;;;;;;;;;;4913630;29;19916;-76
2022/11/14 03:30:11;;;;;;;;;;;;;;;;;;4894648;29;20394;-75
2022/11/14 03:32:57;;;;;;;;;;;;;;;;;;4912375;29;19945;-74
2022/11/14 03:35:44;;;;;;;;;;;;;;;;;;4899481;29;19915;-76
2022/11/14 03:38:30;;;;;;;;;;;;;;;;;;4911848;29;19918;-75
2022/11/14 03:41:17;;;;;;;;;;;;;;;;;;4899116;29;19926;-75
2022/11/14 03:44:03;;;;;;;;;;;;;;;;;;4908250;29;19926;-74
2022/11/14 03:46:50;;;;;;;;;;;;;;;;;;4913291;29;19911;-75
2022/11/14 03:49:36;;;;;;;;;;;;;;;;;;4913881;29;19915;-74
2022/11/14 03:52:24;;;;;;;;;;;;;;;;;;4909731;29;19930;-75
2022/11/14 03:55:11;;;;;;;;;;;;;;;;;;4907773;29;20037;-77
2022/11/14 03:57:57;;;;;;;;;;;;;;;;;;4906660;29;19919;-76
2022/11/14 04:00:44;;;;;;;;;;;;;;;;;;4910289;29;19922;-76
2022/11/14 04:03:30;;;;;;;;;;;;;;;;;;4912600;29;19916;-77
2022/11/14 04:06:17;;;;;;;;;;;;;;;;;;4913370;29;19915;-77
2022/11/14 04:09:03;;;;;;;;;;;;;;;;;;4911921;29;19919;-76
2022/11/14 04:11:50;;;;;;;;;;;;;;;;;;4912116;29;19931;-75
2022/11/14 04:14:36;;;;;;;;;;;;;;;;;;4899945;29;19916;-75
2022/11/14 04:17:23;;;;;;;;;;;;;;;;;;4910945;29;19915;-75
2022/11/14 04:20:09;;;;;;;;;;;;;;;;;;4911420;29;20283;-76
2022/11/14 04:22:56;;;;;;;;;;;;;;;;;;4908527;29;19916;-76
2022/11/14 04:25:42;;;;;;;;;;;;;;;;;;4908778;29;19919;-76
2022/11/14 04:28:29;;;;;;;;;;;;;;;;;;4910806;29;19919;-76
2022/11/14 04:31:15;;;;;;;;;;;;;;;;;;4903264;29;19933;-75
2022/11/14 04:34:02;;;;;;;;;;;;;;;;;;4903365;29;19937;-74
2022/11/14 04:36:50;;;;;;;;;;;;;;;;;;4910956;29;19930;-75
2022/11/14 04:39:36;;;;;;;;;;;;;;;;;;4906346;29;19919;-75
2022/11/14 04:42:23;;;;;;;;;;;;;;;;;;4900761;29;19922;-74
2022/11/14 04:45:09;;;;;;;;;;;;;;;;;;4904204;29;19911;-74
2022/11/14 04:47:56;;;;;;;;;;;;;;;;;;4903258;29;19919;-75
2022/11/14 04:50:42;;;;;;;;;;;;;;;;;;4898316;29;19930;-74
2022/11/14 04:53:29;;;;;;;;;;;;;;;;;;4906605;29;19915;-73
2022/11/14 04:56:15;;;;;;;;;;;;;;;;;;4900031;29;19912;-74
2022/11/14 04:59:02;;;;;;;;;;;;;;;;;;4896172;29;20533;-73
2022/11/14 05:01:48;;;;;;;;;;;;;;;;;;4901566;29;19923;-73
2022/11/14 05:04:35;;;;;;;;;;;;;;;;;;4903416;29;19915;-74
2022/11/14 05:07:21;;;;;;;;;;;;;;;;;;4907642;29;19915;-74
2022/11/14 05:10:08;;;;;;;;;;;;;;;;;;4907321;29;19915;-74
2022/11/14 05:12:54;;;;;;;;;;;;;;;;;;4896619;29;19942;-74
2022/11/14 05:15:40;;;;;;;;;;;;;;;;;;4896308;29;19911;-74
2022/11/14 05:18:27;;;;;;;;;;;;;;;;;;4895808;29;19922;-74
2022/11/14 05:21:13;;;;;;;;;;;;;;;;;;4893542;29;20430;-74
2022/11/14 05:24:00;;;;;;;;;;;;;;;;;;4902903;29;19919;-74
2022/11/14 05:26:46;;;;;;;;;;;;;;;;;;4900756;29;19923;-74
2022/11/14 05:29:33;;;;;;;;;;;;;;;;;;4909931;29;20621;-74
2022/11/14 05:32:19;;;;;;;;;;;;;;;;;;4909090;29;19923;-73
2022/11/14 05:35:06;;;;;;;;;;;;;;;;;;4908862;29;19916;-72
2022/11/14 05:37:52;;;;;;;;;;;;;;;;;;4897049;29;19919;-73
2022/11/14 05:40:39;;;;;;;;;;;;;;;;;;4898847;29;20363;-73
2022/11/14 05:43:25;;;;;;;;;;;;;;;;;;4905121;29;19922;-72
2022/11/14 05:46:12;;;;;;;;;;;;;;;;;;4894759;29;19915;-73
2022/11/14 05:48:58;;;;;;;;;;;;;;;;;;4901602;29;19958;-73
2022/11/14 05:51:45;;;;;;;;;;;;;;;;;;4909933;29;19919;-73
2022/11/14 05:54:31;;;;;;;;;;;;;;;;;;4901957;29;19911;-73
2022/11/14 05:57:17;;;;;;;;;;;;;;;;;;4907849;29;19919;-73
2022/11/14 06:00:04;;;;;;;;;;;;;;;;;;4909560;29;19915;-74
2022/11/14 06:02:50;;;;;;;;;;;;;;;;;;4907535;29;20291;-73
2022/11/14 06:05:37;;;;;;;;;;;;;;;;;;4901323;29;19922;-75
2022/11/14 06:08:23;;;;;;;;;;;;;;;;;;4900617;29;19915;-76
2022/11/14 06:11:10;;;;;;;;;;;;;;;;;;4905526;29;19923;-76
2022/11/14 06:13:56;;;;;;;;;;;;;;;;;;4901929;29;19912;-75
2022/11/14 06:16:43;;;;;;;;;;;;;;;;;;4900650;29;19923;-76
2022/11/14 06:19:29;;;;;;;;;;;;;;;;;;4902914;29;19918;-76
2022/11/14 06:22:16;;;;;;;;;;;;;;;;;;4903835;29;19918;-75
2022/11/14 06:25:02;;;;;;;;;;;;;;;;;;4905070;29;19964;-75
2022/11/14 06:27:49;;;;;;;;;;;;;;;;;;4909840;29;19922;-76
2022/11/14 06:30:35;;;;;;;;;;;;;;;;;;4902051;29;19923;-75
2022/11/14 06:33:21;;;;;;;;;;;;;;;;;;4905043;29;19923;-75
2022/11/14 06:36:08;;;;;;;;;;;;;;;;;;4900954;29;19915;-74
2022/11/14 06:38:54;;;;;;;;;;;;;;;;;;4904450;29;19915;-75
2022/11/14 06:41:41;;;;;;;;;;;;;;;;;;4907815;29;20443;-74
2022/11/14 06:44:27;;;;;;;;;;;;;;;;;;4899958;29;19919;-75
2022/11/14 06:47:14;;;;;;;;;;;;;;;;;;4901238;29;19915;-76
2022/11/14 06:50:00;;;;;;;;;;;;;;;;;;4912551;29;19911;-75
2022/11/14 06:52:47;;;;;;;;;;;;;;;;;;4912305;29;20295;-75
2022/11/14 06:55:33;;;;;;;;;;;;;;;;;;4911608;29;20390;-75
2022/11/14 06:58:20;;;;;;;;;;;;;;;;;;4896540;29;19918;-76
2022/11/14 07:01:06;;;;;;;;;;;;;;;;;;4902992;29;19919;-76
2022/11/14 07:03:53;;;;;;;;;;;;;;;;;;4908190;29;19919;-76
2022/11/14 07:06:39;;;;;;;;;;;;;;;;;;4900280;29;20026;-74
2022/11/14 07:09:26;;;;;;;;;;;;;;;;;;4907521;29;19919;-75
2022/11/14 07:12:12;;;;;;;;;;;;;;;;;;4907456;29;19927;-75
2022/11/14 07:14:59;;;;;;;;;;;;;;;;;;4903711;29;20268;-77
2022/11/14 07:17:47;;;;;;;;;;;;;;;;;;4906380;29;19918;-76
2022/11/14 07:20:33;;;;;;;;;;;;;;;;;;4909806;29;19915;-76
2022/11/14 07:23:20;;;;;;;;;;;;;;;;;;4911950;29;19911;-76
2022/11/14 07:26:06;;;;;;;;;;;;;;;;;;4909318;29;19917;-78
2022/11/14 07:28:53;;;;;;;;;;;;;;;;;;4906328;29;20280;-76
2022/11/14 07:31:39;;;;;;;;;;;;;;;;;;4907389;29;19931;-76
2022/11/14 07:34:26;;;;;;;;;;;;;;;;;;4903539;29;20334;-76
2022/11/14 07:37:12;;;;;;;;;;;;;;;;;;4911914;29;19915;-76
2022/11/14 07:39:59;;;;;;;;;;;;;;;;;;4909851;29;19911;-76
2022/11/14 07:42:45;;;;;;;;;;;;;;;;;;4907095;29;19939;-76
2022/11/14 07:45:31;;;;;;;;;;;;;;;;;;4908732;29;19923;-76
2022/11/14 07:48:20;;;;;;;;;;;;;;;;;;4901425;29;19916;-74
2022/11/14 07:51:07;;;;;;;;;;;;;;;;;;4906311;29;19961;-75
2022/11/14 07:53:53;;;;;;;;;;;;;;;;;;4910425;29;20375;-74
2022/11/14 07:56:40;;;;;;;;;;;;;;;;;;4896467;29;19912;-75
2022/11/14 07:59:26;;;;;;;;;;;;;;;;;;4901255;29;20367;-75
2022/11/14 08:02:13;;;;;;;;;;;;;;;;;;4911935;29;19927;-75
2022/11/14 08:05:00;;;;;;;;;;;;;;;;;;4898406;29;20283;-75
2022/11/14 08:07:46;;;;;;;;;;;;;;;;;;4902428;29;19911;-75
2022/11/14 08:10:33;;;;;;;;;;;;;;;;;;4907613;29;19918;-75
2022/11/14 08:13:19;;;;;;;;;;;;;;;;;;4911406;29;19923;-75
2022/11/14 08:16:06;;;;;;;;;;;;;;;;;;4906700;29;19923;-76
2022/11/14 08:18:52;;;;;;;;;;;;;;;;;;4902403;29;19911;-76
2022/11/14 08:21:39;;;;;;;;;;;;;;;;;;4912603;29;19919;-76
2022/11/14 08:24:25;;;;;;;;;;;;;;;;;;4906686;29;19919;-76
2022/11/14 08:27:11;;;;;;;;;;;;;;;;;;4895613;29;19920;-76
2022/11/14 08:29:58;;;;;;;;;;;;;;;;;;4896607;29;19918;-75
2022/11/14 08:32:44;;;;;;;;;;;;;;;;;;4900014;29;19927;-76
2022/11/14 08:35:31;;;;;;;;;;;;;;;;;;4911615;29;19920;-76
2022/11/14 08:38:17;;;;;;;;;;;;;;;;;;4912183;29;19911;-77
2022/11/14 08:41:04;;;;;;;;;;;;;;;;;;4896428;29;19916;-76
2022/11/14 08:43:50;;;;;;;;;;;;;;;;;;4903183;29;20303;-76
2022/11/14 08:46:37;;;;;;;;;;;;;;;;;;4898236;29;19924;-76
2022/11/14 08:49:23;;;;;;;;;;;;;;;;;;4905206;29;19919;-76
2022/11/14 08:52:10;;;;;;;;;;;;;;;;;;4906897;29;19927;-76
2022/11/14 08:54:56;;;;;;;;;;;;;;;;;;4899282;29;19922;-76
2022/11/14 08:57:43;;;;;;;;;;;;;;;;;;4904111;29;19918;-76
2022/11/14 09:00:30;;;;;;;;;;;;;;;;;;4911825;29;19917;-76
2022/11/14 09:03:16;;;;;;;;;;;;;;;;;;4900596;29;19945;-76
2022/11/14 09:06:03;;;;;;;;;;;;;;;;;;4906513;29;20272;-76
2022/11/14 09:08:49;;;;;;;;;;;;;;;;;;4901317;29;19915;-76
2022/11/14 09:11:35;;;;;;;;;;;;;;;;;;4907255;29;19931;-76
2022/11/14 09:14:22;;;;;;;;;;;;;;;;;;4907503;29;20403;-76
2022/11/14 09:17:08;;;;;;;;;;;;;;;;;;4906648;29;19915;-76
2022/11/14 09:19:58;;;;;;;;;;;;;;;;;;4900312;29;19920;-76
2022/11/14 09:22:44;;;;;;;;;;;;;;;;;;4895028;29;19981;-76
2022/11/14 09:25:31;;;;;;;;;;;;;;;;;;4895014;29;19912;-76
2022/11/14 09:28:17;;;;;;;;;;;;;;;;;;4900227;29;19923;-76
2022/11/14 09:31:04;;;;;;;;;;;;;;;;;;4902128;29;19934;-76
2022/11/14 09:33:50;;;;;;;;;;;;;;;;;;4907184;29;19919;-76
2022/11/14 09:36:37;;;;;;;;;;;;;;;;;;4906236;29;19922;-76
2022/11/14 09:39:23;;;;;;;;;;;;;;;;;;4898946;29;20308;-74
2022/11/14 09:42:10;;;;;;;;;;;;;;;;;;4903956;29;19922;-76
2022/11/14 09:44:56;;;;;;;;;;;;;;;;;;4905138;29;19918;-76
2022/11/14 09:47:43;;;;;;;;;;;;;;;;;;4903611;29;19926;-76
2022/11/14 09:50:29;;;;;;;;;;;;;;;;;;4909548;29;19942;-76
2022/11/14 09:53:16;;;;;;;;;;;;;;;;;;4908283;29;19923;-76
2022/11/14 09:56:02;;;;;;;;;;;;;;;;;;4902898;29;19915;-76
2022/11/14 09:58:49;;;;;;;;;;;;;;;;;;4909452;29;20394;-76
2022/11/14 10:01:35;;;;;;;;;;;;;;;;;;4909129;29;19937;-76
2022/11/14 10:04:22;;;;;;;;;;;;;;;;;;4907130;29;19918;-76
2022/11/14 10:07:08;;;;;;;;;;;;;;;;;;4900006;29;19923;-76
2022/11/14 10:09:55;;;;;;;;;;;;;;;;;;4900368;29;20307;-76
2022/11/14 10:12:41;;;;;;;;;;;;;;;;;;4906422;29;19923;-76
2022/11/14 10:15:28;;;;;;;;;;;;;;;;;;4900053;29;19915;-76
2022/11/14 10:18:14;;;;;;;;;;;;;;;;;;4902244;29;19919;-76
2022/11/14 10:21:01;;;;;;;;;;;;;;;;;;4905410;29;19915;-76
2022/11/14 10:23:47;;;;;;;;;;;;;;;;;;4901654;29;19911;-76
2022/11/14 10:26:34;;;;;;;;;;;;;;;;;;4912681;29;19922;-77
2022/11/14 10:29:20;;;;;;;;;;;;;;;;;;4908744;29;19912;-76
2022/11/14 10:32:06;;;;;;;;;;;;;;;;;;4906736;29;19926;-75
2022/11/14 10:34:53;;;;;;;;;;;;;;;;;;4913821;29;20374;-76
2022/11/14 10:37:39;;;;;;;;;;;;;;;;;;4907531;29;19912;-75
2022/11/14 10:40:26;;;;;;;;;;;;;;;;;;4907565;29;20288;-75
2022/11/14 10:43:14;;;;;;;;;;;;;;;;;;4901493;29;19915;-75
2022/11/14 10:46:01;;;;;;;;;;;;;;;;;;4905950;29;19911;-75
2022/11/14 10:48:47;;;;;;;;;;;;;;;;;;4911060;29;19915;-75
2022/11/14 10:51:33;;;;;;;;;;;;;;;;;;4905313;29;19923;-76
2022/11/14 10:54:20;;;;;;;;;;;;;;;;;;4908396;29;19918;-75
2022/11/14 10:57:06;;;;;;;;;;;;;;;;;;4904758;29;19912;-75
2022/11/14 10:59:54;;;;;;;;;;;;;;;;;;4913169;29;19915;-75
2022/11/14 11:02:40;;;;;;;;;;;;;;;;;;4903833;29;19928;-76
2022/11/14 11:05:29;;;;;;;;;;;;;;;;;;4906888;29;20120;-76
2022/11/14 11:11:30;;;;;;;;;;;;;;;;;;4906771;29;19926;-76
2022/11/14 11:14:17;;;;;;;;;;;;;;;;;;4908455;29;20402;-75
2022/11/14 11:17:03;;;;;;;;;;;;;;;;;;4909647;29;19918;-76
2022/11/14 11:19:49;;;;;;;;;;;;;;;;;;4904498;29;19926;-76
2022/11/14 11:22:36;;;;;;;;;;;;;;;;;;4898594;29;19923;-77
2022/11/14 11:25:22;;;;;;;;;;;;;;;;;;4910914;29;19919;-77
2022/11/14 11:28:09;;;;;;;;;;;;;;;;;;4910739;29;19922;-77
2022/11/14 11:30:55;;;;;;;;;;;;;;;;;;4909335;29;19916;-76
2022/11/14 11:33:42;;;;;;;;;;;;;;;;;;4902897;29;19922;-77
2022/11/14 11:36:28;;;;;;;;;;;;;;;;;;4903761;29;19911;-76
2022/11/14 11:39:15;;;;;;;;;;;;;;;;;;4900660;29;19986;-74
2022/11/14 11:42:01;;;;;;;;;;;;;;;;;;4904555;29;19915;-76
2022/11/14 11:44:48;;;;;;;;;;;;;;;;;;4910296;29;20434;-76
2022/11/14 11:47:34;;;;;;;;;;;;;;;;;;4906605;29;19942;-76
2022/11/14 11:50:23;;;;;;;;;;;;;;;;;;4912673;29;19918;-76
2022/11/14 11:53:11;;;;;;;;;;;;;;;;;;4906478;29;19931;-76
2022/11/14 11:55:57;;;;;;;;;;;;;;;;;;4906325;29;19911;-75
2022/11/14 11:58:44;;;;;;;;;;;;;;;;;;4897701;29;19916;-75
2022/11/14 12:01:30;;;;;;;;;;;;;;;;;;4901872;29;20451;-75
2022/11/14 12:04:17;;;;;;;;;;;;;;;;;;4902116;29;19918;-75
2022/11/14 12:07:03;;;;;;;;;;;;;;;;;;4904333;29;20489;-75
2022/11/14 12:09:53;;;;;;;;;;;;;;;;;;4903890;29;19915;-75
2022/11/14 12:12:39;;;;;;;;;;;;;;;;;;4909036;29;19926;-75
2022/11/14 12:15:26;;;;;;;;;;;;;;;;;;4899674;29;19915;-75
2022/11/14 12:18:12;;;;;;;;;;;;;;;;;;4896301;29;19911;-75
2022/11/14 12:20:59;;;;;;;;;;;;;;;;;;4906699;29;19915;-74
2022/11/14 12:23:45;;;;;;;;;;;;;;;;;;4899602;29;19934;-74
2022/11/14 12:26:31;;;;;;;;;;;;;;;;;;4903057;29;19921;-74
2022/11/14 12:29:18;;;;;;;;;;;;;;;;;;4909548;29;20529;-75
2022/11/14 12:32:05;;;;;;;;;;;;;;;;;;4911801;29;19926;-75
2022/11/14 12:34:51;;;;;;;;;;;;;;;;;;4904659;29;19922;-76
2022/11/14 12:37:38;;;;;;;;;;;;;;;;;;4906957;29;19915;-75
2022/11/14 12:40:24;;;;;;;;;;;;;;;;;;4908160;29;19912;-75
2022/11/14 12:43:11;;;;;;;;;;;;;;;;;;4908021;29;19918;-75
2022/11/14 12:45:57;;;;;;;;;;;;;;;;;;4902095;29;19915;-75
2022/11/14 12:48:44;;;;;;;;;;;;;;;;;;4908544;29;19946;-75
2022/11/14 12:51:30;;;;;;;;;;;;;;;;;;4909018;29;19919;-76
2022/11/14 12:54:17;;;;;;;;;;;;;;;;;;4904193;29;19915;-75
2022/11/14 12:57:08;;;;;;;;;;;;;;;;;;4908726;29;19915;-75
2022/11/14 12:59:55;;;;;;;;;;;;;;;;;;4897461;29;20287;-76
2022/11/14 13:02:41;;;;;;;;;;;;;;;;;;4907857;29;19993;-75
2022/11/14 13:05:28;;;;;;;;;;;;;;;;;;4907026;29;19919;-75
2022/11/14 13:08:15;;;;;;;;;;;;;;;;;;4901262;29;19919;-75
2022/11/14 13:11:01;;;;;;;;;;;;;;;;;;4898048;29;19911;-75
2022/11/14 13:23:03;;;;;;;;;;;;;;;;;;4902814;29;20296;-76
2022/11/14 13:25:50;;;;;;;;;;;;;;;;;;4906526;29;19915;-75
2022/11/14 13:28:36;;;;;;;;;;;;;;;;;;4904065;29;19925;-75
2022/11/14 13:31:23;;;;;;;;;;;;;;;;;;4904919;29;20368;-75
2022/11/14 13:34:09;;;;;;;;;;;;;;;;;;4905851;29;19922;-75
2022/11/14 13:36:56;;;;;;;;;;;;;;;;;;4904540;29;20425;-74
2022/11/14 13:39:42;;;;;;;;;;;;;;;;;;4898590;29;19917;-75
2022/11/14 13:42:29;;;;;;;;;;;;;;;;;;4898114;29;19922;-74
2022/11/14 13:45:15;;;;;;;;;;;;;;;;;;4902012;29;20339;-75
2022/11/14 13:48:02;;;;;;;;;;;;;;;;;;4907611;29;20380;-75
2022/11/14 13:50:48;;;;;;;;;;;;;;;;;;4904649;29;19915;-75
2022/11/14 13:53:35;;;;;;;;;;;;;;;;;;4902900;29;19924;-75
2022/11/14 13:56:21;;;;;;;;;;;;;;;;;;4899931;29;19916;-75
2022/11/14 13:59:08;;;;;;;;;;;;;;;;;;4916457;29;20054;-76
2022/11/14 14:02:01;;;;;;;;;;;;;;;;;;4903143;29;19930;-76
2022/11/14 14:04:47;;;;;;;;;;;;;;;;;;4910173;29;19922;-76
2022/11/14 14:07:34;;;;;;;;;;;;;;;;;;4906975;29;19926;-76
2022/11/14 14:10:20;;;;;;;;;;;;;;;;;;4905173;29;19918;-77
2022/11/14 14:13:07;;;;;;;;;;;;;;;;;;4904943;29;19935;-76
2022/11/14 14:15:53;;;;;;;;;;;;;;;;;;4912297;29;20284;-75
2022/11/14 14:18:40;;;;;;;;;;;;;;;;;;4901042;29;19916;-75
2022/11/14 14:21:26;;;;;;;;;;;;;;;;;;4897359;29;19943;-74
2022/11/14 14:24:12;;;;;;;;;;;;;;;;;;4904595;29;19923;-74
2022/11/14 14:26:59;;;;;;;;;;;;;;;;;;4909391;29;20472;-75
2022/11/14 14:29:45;;;;;;;;;;;;;;;;;;4902683;29;19915;-75
2022/11/14 14:32:32;;;;;;;;;;;;;;;;;;4905357;29;19942;-75
2022/11/14 14:35:18;;;;;;;;;;;;;;;;;;4904096;29;20239;-76
2022/11/14 14:38:05;;;;;;;;;;;;;;;;;;4904788;29;19923;-76
2022/11/14 14:40:51;;;;;;;;;;;;;;;;;;4910892;29;20394;-76
2022/11/14 14:43:39;;;;;;;;;;;;;;;;;;4907658;29;19918;-76
2022/11/14 14:46:25;;;;;;;;;;;;;;;;;;4909559;29;20392;-77
2022/11/14 14:49:12;;;;;;;;;;;;;;;;;;4897643;29;19915;-77
2022/11/14 14:51:58;;;;;;;;;;;;;;;;;;4904206;29;19922;-75
2022/11/14 14:54:45;;;;;;;;;;;;;;;;;;4905415;29;20435;-75
2022/11/14 14:57:31;;;;;;;;;;;;;;;;;;4908168;29;19911;-75
2022/11/14 15:00:17;;;;;;;;;;;;;;;;;;4907013;29;20371;-74
2022/11/14 15:03:04;;;;;;;;;;;;;;;;;;4908929;29;19934;-74
2022/11/14 15:05:50;;;;;;;;;;;;;;;;;;4913850;29;19924;-76
2022/11/14 15:08:37;;;;;;;;;;;;;;;;;;4908948;29;19926;-75
2022/11/14 15:11:23;;;;;;;;;;;;;;;;;;4908274;29;19915;-75
2022/11/14 15:14:10;;;;;;;;;;;;;;;;;;4896434;29;19922;-74
2022/11/14 15:16:56;;;;;;;;;;;;;;;;;;4908796;29;19915;-75
2022/11/14 15:19:43;;;;;;;;;;;;;;;;;;4913304;29;19915;-75
2022/11/14 15:22:29;;;;;;;;;;;;;;;;;;4907397;29;19915;-75
2022/11/14 15:25:16;;;;;;;;;;;;;;;;;;4910055;29;19911;-75
2022/11/14 15:28:02;;;;;;;;;;;;;;;;;;4908320;29;19919;-75
2022/11/14 15:30:49;;;;;;;;;;;;;;;;;;4908504;29;19914;-75
2022/11/14 15:33:35;;;;;;;;;;;;;;;;;;4907166;29;19923;-75
2022/11/14 15:36:22;;;;;;;;;;;;;;;;;;4907906;29;19915;-78
2022/11/14 15:39:08;;;;;;;;;;;;;;;;;;4911519;29;19915;-76
2022/11/14 15:41:55;;;;;;;;;;;;;;;;;;4909036;29;19915;-76
2022/11/14 15:44:41;;;;;;;;;;;;;;;;;;4908625;29;19957;-76
2022/11/14 15:47:28;;;;;;;;;;;;;;;;;;4895673;29;19927;-76
2022/11/14 15:50:15;;;;;;;;;;;;;;;;;;4908915;29;19915;-76
2022/11/14 15:53:01;;;;;;;;;;;;;;;;;;4909898;29;19919;-76
2022/11/14 15:55:47;;;;;;;;;;;;;;;;;;4897324;29;20360;-76
2022/11/14 15:58:34;;;;;;;;;;;;;;;;;;4913142;29;19915;-76
2022/11/14 16:01:20;;;;;;;;;;;;;;;;;;4905168;29;19926;-76
2022/11/14 16:04:07;;;;;;;;;;;;;;;;;;4896701;29;20383;-76
2022/11/14 16:06:53;;;;;;;;;;;;;;;;;;4898221;29;19917;-77
2022/11/14 16:09:40;;;;;;;;;;;;;;;;;;4902087;29;19919;-76
2022/11/14 16:12:26;;;;;;;;;;;;;;;;;;4902525;29;19942;-76
2022/11/14 16:15:13;;;;;;;;;;;;;;;;;;4900086;29;19919;-76
2022/11/14 16:17:59;;;;;;;;;;;;;;;;;;4905639;29;19915;-76
2022/11/14 16:20:46;;;;;;;;;;;;;;;;;;4903554;29;20339;-77
2022/11/14 16:23:32;;;;;;;;;;;;;;;;;;4905680;29;19927;-77
2022/11/14 16:26:19;;;;;;;;;;;;;;;;;;4899838;29;20303;-76
2022/11/14 16:29:06;;;;;;;;;;;;;;;;;;4896908;29;19923;-76
2022/11/14 16:31:54;;;;;;;;;;;;;;;;;;4906703;29;19919;-76
2022/11/14 16:34:40;;;;;;;;;;;;;;;;;;4905103;29;19911;-76
2022/11/14 16:37:27;;;;;;;;;;;;;;;;;;4901152;29;20414;-77
2022/11/14 16:40:13;;;;;;;;;;;;;;;;;;4901122;29;19974;-76
2022/11/14 16:43:00;;;;;;;;;;;;;;;;;;4900849;29;19919;-76
2022/11/14 16:45:46;;;;;;;;;;;;;;;;;;4906450;29;19911;-76
2022/11/14 16:48:33;;;;;;;;;;;;;;;;;;4903975;29;19916;-75
2022/11/14 16:51:19;;;;;;;;;;;;;;;;;;4908375;29;19920;-74
2022/11/14 16:54:06;;;;;;;;;;;;;;;;;;4909979;29;20376;-75
2022/11/14 16:56:52;;;;;;;;;;;;;;;;;;4902042;29;19911;-76
2022/11/14 16:59:39;;;;;;;;;;;;;;;;;;4904119;29;19925;-75
2022/11/14 17:02:25;;;;;;;;;;;;;;;;;;4900347;29;19949;-75
2022/11/14 17:05:11;;;;;;;;;;;;;;;;;;4904660;29;19915;-77
2022/11/14 17:07:58;;;;;;;;;;;;;;;;;;4909301;29;19916;-76
2022/11/14 17:10:44;;;;;;;;;;;;;;;;;;4903036;29;20299;-77
2022/11/14 17:13:31;;;;;;;;;;;;;;;;;;4898295;29;19928;-79
2022/11/14 17:16:17;;;;;;;;;;;;;;;;;;4907566;29;19926;-77
2022/11/14 17:19:04;;;;;;;;;;;;;;;;;;4905637;29;19919;-77
2022/11/14 17:21:50;;;;;;;;;;;;;;;;;;4898802;29;19919;-76
2022/11/14 17:24:37;;;;;;;;;;;;;;;;;;4902074;29;19915;-77
2022/11/14 17:27:23;;;;;;;;;;;;;;;;;;4900785;29;19916;-77
2022/11/14 17:30:10;;;;;;;;;;;;;;;;;;4897987;29;19994;-76
2022/11/14 17:32:56;;;;;;;;;;;;;;;;;;4898058;29;19919;-77
2022/11/14 17:35:43;;;;;;;;;;;;;;;;;;4901958;29;19915;-76
2022/11/14 17:38:29;;;;;;;;;;;;;;;;;;4902929;29;19926;-76
2022/11/14 17:41:16;;;;;;;;;;;;;;;;;;4901700;29;19916;-76
2022/11/14 17:44:02;;;;;;;;;;;;;;;;;;4903009;29;20308;-76
2022/11/14 17:46:49;;;;;;;;;;;;;;;;;;4906727;29;19919;-77
2022/11/14 17:49:35;;;;;;;;;;;;;;;;;;4903304;29;20260;-79
2022/11/14 17:52:22;;;;;;;;;;;;;;;;;;4898495;29;19928;-82
2022/11/14 17:55:08;;;;;;;;;;;;;;;;;;4899650;29;19923;-81
2022/11/14 17:57:54;;;;;;;;;;;;;;;;;;4905355;29;19919;-81
2022/11/14 18:00:41;;;;;;;;;;;;;;;;;;4908896;29;19921;-82
2022/11/14 18:03:27;;;;;;;;;;;;;;;;;;4900558;29;20395;-81
2022/11/14 18:06:14;;;;;;;;;;;;;;;;;;4909133;29;19915;-81
2022/11/14 18:09:03;;;;;;;;;;;;;;;;;;4911024;29;19931;-79
2022/11/14 18:11:50;;;;;;;;;;;;;;;;;;4912704;29;19915;-80
2022/11/14 18:14:36;;;;;;;;;;;;;;;;;;4902076;29;20041;-80
2022/11/14 18:17:23;;;;;;;;;;;;;;;;;;4906173;29;20276;-80
2022/11/14 18:20:09;;;;;;;;;;;;;;;;;;4900324;29;19919;-80
2022/11/14 18:22:56;;;;;;;;;;;;;;;;;;4903531;29;19939;-80
2022/11/14 18:25:42;;;;;;;;;;;;;;;;;;4907977;29;19911;-80
2022/11/14 18:28:29;;;;;;;;;;;;;;;;;;4903341;29;19922;-80
2022/11/14 18:31:15;;;;;;;;;;;;;;;;;;4906650;29;19922;-80
2022/11/14 18:34:02;;;;;;;;;;;;;;;;;;4907061;29;19934;-80
2022/11/14 18:36:48;;;;;;;;;;;;;;;;;;4898647;29;20406;-81
2022/11/14 18:39:34;;;;;;;;;;;;;;;;;;4899288;29;20386;-81
2022/11/14 18:42:21;;;;;;;;;;;;;;;;;;4904508;29;19919;-81
2022/11/14 18:45:08;;;;;;;;;;;;;;;;;;4906178;29;20596;-82
2022/11/14 18:47:54;;;;;;;;;;;;;;;;;;4904970;29;19923;-81
2022/11/14 18:50:40;;;;;;;;;;;;;;;;;;4906417;29;19920;-81
2022/11/14 18:53:29;;;;;;;;;;;;;;;;;;4908386;29;20423;-80
2022/11/14 18:56:16;;;;;;;;;;;;;;;;;;4901848;29;20707;-81
2022/11/14 18:59:02;;;;;;;;;;;;;;;;;;4904418;29;19915;-81
2022/11/14 19:01:49;;;;;;;;;;;;;;;;;;4901420;29;19934;-80
2022/11/14 19:04:36;;;;;;;;;;;;;;;;;;4905284;29;19919;-80
2022/11/14 19:07:24;;;;;;;;;;;;;;;;;;4905003;29;19950;-80
2022/11/14 19:10:10;;;;;;;;;;;;;;;;;;4907987;29;19918;-80